createdAt,value
2022-12-12T00:00:29.362Z,-3.00
2022-12-12T00:02:58.970Z,-3.10
2022-12-12T00:05:27.552Z,-3.10
2022-12-12T00:07:55.863Z,-3.50
2022-12-12T00:10:25.605Z,-2.90
2022-12-12T00:12:53.979Z,-3.30
2022-12-12T00:15:22.564Z,-2.80
2022-12-12T00:17:51.163Z,-3.30
2022-12-12T00:20:19.764Z,-2.90
2022-12-12T00:22:47.976Z,-3.30
2022-12-12T00:25:16.575Z,-3.10
2022-12-12T00:27:46.433Z,-3.30
2022-12-12T00:30:15.276Z,-3.40
2022-12-12T00:32:43.624Z,-2.90
2022-12-12T00:35:12.293Z,-3.20
2022-12-12T00:37:40.871Z,-3.30
2022-12-12T00:40:11.473Z,-2.80
2022-12-12T00:42:39.777Z,-3.30
2022-12-12T00:45:11.068Z,-3.10
2022-12-12T00:47:39.606Z,-3.30
2022-12-12T00:50:09.046Z,-3.30
2022-12-12T00:52:37.457Z,-3.30
2022-12-12T00:55:07.016Z,-3.20
2022-12-12T00:57:35.753Z,-3.30
2022-12-12T01:00:04.849Z,-3.20
2022-12-12T01:02:34.545Z,-2.90
2022-12-12T01:05:02.858Z,-3.20
2022-12-12T01:07:31.243Z,-2.80
2022-12-12T01:09:59.471Z,-3.10
2022-12-12T01:12:27.856Z,-3.20
2022-12-12T01:14:56.162Z,-3.10
2022-12-12T01:17:24.446Z,-3.30
2022-12-12T01:19:54.073Z,-2.20
2022-12-12T01:22:23.525Z,-2.90
2022-12-12T01:24:51.791Z,-3.20
2022-12-12T01:27:22.410Z,-3.10
2022-12-12T01:29:51.245Z,-3.20
2022-12-12T01:32:19.837Z,-3.20
2022-12-12T01:34:48.252Z,-3.20
2022-12-12T01:37:18.432Z,-2.90
2022-12-12T01:39:47.474Z,-2.60
2022-12-12T01:42:18.350Z,-2.70
2022-12-12T01:44:52.621Z,-2.70
2022-12-12T01:47:23.720Z,-3.20
2022-12-12T01:49:57.194Z,-3.10
2022-12-12T01:52:32.000Z,-3.10
2022-12-12T01:55:03.717Z,-3.10
2022-12-12T01:57:34.268Z,-2.60
2022-12-12T02:00:04.753Z,-2.60
2022-12-12T02:02:33.289Z,-3.00
2022-12-12T02:05:06.514Z,-3.10
2022-12-12T02:07:36.533Z,-2.30
2022-12-12T02:10:05.502Z,-3.00
2022-12-12T02:12:33.970Z,-3.10
2022-12-12T02:15:02.645Z,-2.90
2022-12-12T02:18:03.716Z,-3.00
2022-12-12T02:20:51.351Z,-3.00
2022-12-12T02:23:55.487Z,-2.80
2022-12-12T02:27:09.533Z,-2.50
2022-12-12T02:30:09.352Z,-3.00
2022-12-12T02:33:14.229Z,-3.00
2022-12-12T02:35:55.216Z,-2.20
2022-12-12T02:38:35.199Z,-3.00
2022-12-12T04:25:34.617Z,-2.80
2022-12-12T04:28:19.728Z,-2.90
2022-12-12T04:30:51.540Z,-2.60
2022-12-12T04:33:40.223Z,-2.30
2022-12-12T04:36:14.553Z,-2.70
2022-12-12T04:38:46.759Z,-2.80
2022-12-12T04:41:17.902Z,-2.60
2022-12-12T04:43:53.241Z,-2.70
2022-12-12T04:46:30.478Z,-2.70
2022-12-12T04:49:04.978Z,-2.70
2022-12-12T04:51:36.191Z,-2.00
2022-12-12T04:54:10.987Z,-2.30
2022-12-12T04:56:47.080Z,-1.90
2022-12-12T04:59:15.664Z,-2.60
2022-12-12T05:01:53.354Z,-2.50
2022-12-12T05:04:31.510Z,-2.60
2022-12-12T05:07:03.768Z,-2.10
2022-12-12T05:09:32.642Z,-2.60
2022-12-12T05:12:01.524Z,-2.50
2022-12-12T05:14:31.849Z,-1.90
2022-12-12T05:17:05.174Z,-2.20
2022-12-12T05:19:37.663Z,-2.00
2022-12-12T05:22:05.988Z,-2.30
2022-12-12T05:24:34.185Z,-2.50
2022-12-12T05:27:02.526Z,-2.10
2022-12-12T05:29:32.057Z,-2.10
2022-12-12T05:32:00.423Z,-2.20
2022-12-12T05:34:31.459Z,-2.20
2022-12-12T05:37:01.591Z,-1.90
2022-12-12T05:39:30.466Z,-1.80
2022-12-12T05:41:59.037Z,-2.00
2022-12-12T05:44:27.347Z,-2.30
2022-12-12T05:46:55.785Z,-2.10
2022-12-12T05:49:24.291Z,-2.10
2022-12-12T05:51:53.596Z,-2.30
2022-12-12T05:54:23.381Z,-1.70
2022-12-12T05:56:51.715Z,-2.20
2022-12-12T05:59:21.441Z,-2.20
2022-12-12T06:01:49.722Z,-1.60
2022-12-12T06:04:18.194Z,-1.20
2022-12-12T06:06:46.734Z,-2.10
2022-12-12T06:09:16.457Z,-1.50
2022-12-12T06:11:46.242Z,-2.20
2022-12-12T06:14:14.731Z,-2.10
2022-12-12T06:16:43.113Z,-2.10
2022-12-12T06:19:11.437Z,-1.80
2022-12-12T06:21:39.968Z,-2.00
2022-12-12T06:24:09.058Z,-1.80
2022-12-12T06:26:37.981Z,-2.00
2022-12-12T06:29:07.882Z,-1.90
2022-12-12T06:31:36.314Z,-1.90
2022-12-12T06:34:04.964Z,-2.00
2022-12-12T06:36:34.269Z,-1.90
2022-12-12T06:39:03.173Z,-1.80
2022-12-12T06:41:33.303Z,-1.80
2022-12-12T06:44:03.564Z,-1.90
2022-12-12T06:46:41.100Z,-1.90
2022-12-12T06:49:10.679Z,-1.90
2022-12-12T06:51:44.356Z,-1.20
2022-12-12T06:54:13.496Z,-1.80
2022-12-12T06:56:48.020Z,-1.80
2022-12-12T06:59:18.926Z,-1.80
2022-12-12T07:02:03.935Z,-1.80
2022-12-12T07:04:32.357Z,-1.20
2022-12-12T07:07:00.786Z,-1.50
2022-12-12T07:09:29.840Z,-1.40
2022-12-12T07:11:58.197Z,-1.70
2022-12-12T07:14:26.836Z,-1.10
2022-12-12T07:16:55.412Z,-1.70
2022-12-12T07:19:26.383Z,-1.50
2022-12-12T07:21:54.729Z,-1.60
2022-12-12T07:24:23.086Z,-1.70
2022-12-12T07:26:54.192Z,-1.60
2022-12-12T07:29:23.562Z,-1.40
2022-12-12T07:31:59.430Z,-1.60
2022-12-12T07:34:33.470Z,-1.60
2022-12-12T07:37:03.444Z,-0.90
2022-12-12T07:39:32.733Z,-1.60
2022-12-12T07:42:03.201Z,-1.40
2022-12-12T07:44:31.963Z,-1.40
2022-12-12T07:47:02.590Z,-1.40
2022-12-12T07:49:32.379Z,-1.10
2022-12-12T07:52:00.853Z,-1.20
2022-12-12T07:54:46.800Z,-1.30
2022-12-12T07:57:17.528Z,-1.00
2022-12-12T07:59:46.060Z,-1.40
2022-12-12T08:02:14.481Z,-1.20
2022-12-12T08:04:44.247Z,-1.10
2022-12-12T08:07:12.697Z,-1.20
2022-12-12T08:09:41.334Z,-1.20
2022-12-12T08:12:12.180Z,-1.20
2022-12-12T08:14:40.611Z,-1.20
2022-12-12T08:17:09.119Z,-1.00
2022-12-12T08:19:38.135Z,-1.10
2022-12-12T08:22:09.824Z,-1.10
2022-12-12T08:24:38.802Z,-1.10
2022-12-12T08:27:12.163Z,-0.10
2022-12-12T08:29:43.929Z,-1.10
2022-12-12T08:32:12.395Z,-0.60
2022-12-12T08:34:40.751Z,-1.00
2022-12-12T08:37:11.908Z,-0.90
2022-12-12T08:39:40.930Z,-0.90
2022-12-12T08:42:10.893Z,-0.90
2022-12-12T08:44:39.537Z,-0.90
2022-12-12T08:47:08.070Z,-0.90
2022-12-12T08:49:36.835Z,-0.90
2022-12-12T08:52:11.408Z,-0.80
2022-12-12T08:54:44.307Z,-0.70
2022-12-12T08:57:15.116Z,-0.80
2022-12-12T08:59:43.638Z,-0.90
2022-12-12T09:02:14.355Z,-0.90
2022-12-12T09:04:43.128Z,-0.70
2022-12-12T09:07:11.700Z,-0.60
2022-12-12T09:09:40.506Z,-0.70
2022-12-12T09:12:11.751Z,-0.70
2022-12-12T09:14:41.158Z,-0.60
2022-12-12T09:17:10.158Z,-0.70
2022-12-12T09:19:38.973Z,-0.60
2022-12-12T09:22:07.337Z,-0.70
2022-12-12T09:24:35.666Z,-0.60
2022-12-12T09:27:04.286Z,-0.60
2022-12-12T09:29:34.415Z,-0.30
2022-12-12T09:32:06.488Z,-0.60
2022-12-12T09:34:35.448Z,-0.60
2022-12-12T09:37:12.562Z,0.00
2022-12-12T09:39:44.955Z,-0.60
2022-12-12T09:42:22.525Z,-0.60
2022-12-12T09:44:54.749Z,-0.40
2022-12-12T09:47:31.433Z,-0.50
2022-12-12T09:50:05.998Z,-0.50
2022-12-12T09:52:37.715Z,-0.50
2022-12-12T09:55:24.433Z,-0.40
2022-12-12T09:57:59.072Z,-0.40
2022-12-12T10:00:32.874Z,-0.30
2022-12-12T10:03:15.168Z,-0.30
2022-12-12T10:06:01.976Z,-0.40
2022-12-12T10:08:46.310Z,0.80
2022-12-12T10:11:38.552Z,-0.40
2022-12-12T10:14:10.568Z,-0.20
2022-12-12T10:16:42.507Z,-0.10
2022-12-12T10:19:15.875Z,-0.30
2022-12-12T10:21:44.348Z,0.80
2022-12-12T10:24:25.457Z,-0.20
2022-12-12T10:26:54.511Z,-0.20
2022-12-12T10:29:26.299Z,-0.30
2022-12-12T10:32:05.383Z,-0.30
2022-12-12T10:34:46.201Z,-0.20
2022-12-12T10:37:35.741Z,-0.30
2022-12-12T10:40:16.879Z,-0.30
2022-12-12T10:42:55.456Z,-0.30
2022-12-12T10:45:43.015Z,-0.30
2022-12-12T10:48:13.231Z,-0.30
2022-12-12T10:50:45.769Z,-0.30
2022-12-12T10:53:14.439Z,-0.30
2022-12-12T10:55:49.497Z,-0.20
2022-12-12T10:58:19.213Z,-0.30
2022-12-12T11:00:49.590Z,-0.20
2022-12-12T11:03:29.798Z,-0.20
2022-12-12T11:05:58.828Z,0.10
2022-12-12T11:08:32.042Z,-0.20
2022-12-12T11:11:08.031Z,-0.20
2022-12-12T11:13:47.746Z,0.20
2022-12-12T11:16:19.049Z,-0.20
2022-12-12T11:19:06.459Z,-0.20
2022-12-12T11:21:37.076Z,-0.20
2022-12-12T11:24:09.922Z,-0.20
2022-12-12T11:26:45.746Z,-0.20
2022-12-12T11:29:32.682Z,0.70
2022-12-12T11:32:01.747Z,-0.20
2022-12-12T11:34:34.189Z,-0.20
2022-12-12T11:37:02.607Z,-0.20
2022-12-12T11:39:35.186Z,0.00
2022-12-12T11:42:07.548Z,-0.20
2022-12-12T11:44:38.823Z,-0.20
2022-12-12T11:47:27.127Z,0.50
2022-12-12T11:49:58.648Z,0.20
2022-12-12T11:52:30.285Z,-0.20
2022-12-12T11:54:59.770Z,-0.20
2022-12-12T11:57:43.058Z,-0.20
2022-12-12T12:00:16.363Z,-0.10
2022-12-12T12:03:19.967Z,-0.20
2022-12-12T12:06:14.480Z,-0.20
2022-12-12T12:09:03.831Z,-0.20
2022-12-12T12:11:44.108Z,-0.10
2022-12-12T12:14:30.164Z,-0.20
2022-12-12T12:17:06.005Z,-0.10
2022-12-12T12:19:41.555Z,-0.10
2022-12-12T12:22:19.868Z,-0.10
2022-12-12T12:25:25.541Z,0.60
2022-12-12T12:28:04.970Z,-0.10
2022-12-12T12:30:43.656Z,-0.10
2022-12-12T12:33:35.886Z,-0.60
2022-12-12T12:36:21.053Z,-0.10
2022-12-12T12:39:00.736Z,-0.10
2022-12-12T12:41:46.790Z,0.00
2022-12-12T12:44:42.156Z,-0.20
2022-12-12T12:47:24.419Z,-0.10
2022-12-12T12:50:02.306Z,-0.10
2022-12-12T12:52:38.922Z,-0.20
2022-12-12T12:55:16.147Z,0.30
2022-12-12T12:57:46.517Z,-0.10
2022-12-12T13:00:24.428Z,-0.20
2022-12-12T13:03:00.182Z,-0.10
2022-12-12T13:05:36.693Z,0.20
2022-12-12T13:08:17.726Z,-0.20
2022-12-12T13:10:55.513Z,-0.10
2022-12-12T13:13:29.477Z,0.40
2022-12-12T13:16:04.468Z,-0.10
2022-12-12T13:18:52.417Z,-0.20
2022-12-12T13:21:31.851Z,-0.10
2022-12-12T13:24:09.618Z,-0.10
2022-12-12T13:26:47.587Z,-0.20
2022-12-12T13:29:47.976Z,0.00
2022-12-12T13:32:51.619Z,-0.10
2022-12-12T13:35:26.770Z,-0.10
2022-12-12T13:37:56.576Z,0.50
2022-12-12T13:40:30.440Z,-0.10
2022-12-12T13:43:09.096Z,-0.10
2022-12-12T13:45:44.743Z,-0.20
2022-12-12T13:48:46.249Z,-0.20
2022-12-12T13:51:35.786Z,-0.20
2022-12-12T13:54:56.112Z,-0.20
2022-12-12T13:57:31.887Z,-0.30
2022-12-12T14:00:21.055Z,-0.20
2022-12-12T14:03:18.670Z,-0.20
2022-12-12T14:05:49.958Z,-0.20
2022-12-12T14:08:29.295Z,-0.10
2022-12-12T14:11:15.196Z,-0.10
2022-12-12T14:13:50.826Z,-0.20
2022-12-12T14:16:32.125Z,-0.10
2022-12-12T14:19:31.039Z,-0.10
2022-12-12T14:21:59.793Z,-0.20
2022-12-12T14:25:10.197Z,0.10
2022-12-12T14:28:17.806Z,-0.20
2022-12-12T14:30:50.638Z,-0.10
2022-12-12T14:33:52.404Z,-0.20
2022-12-12T14:36:39.825Z,-0.20
2022-12-12T14:39:17.984Z,-0.20
2022-12-12T14:41:53.199Z,-0.20
2022-12-12T14:44:35.569Z,0.00
2022-12-12T14:47:09.667Z,-0.20
2022-12-12T14:49:39.433Z,-0.10
2022-12-12T14:52:07.788Z,-0.10
2022-12-12T14:54:37.776Z,-0.10
2022-12-12T14:57:08.870Z,-0.10
2022-12-12T14:59:40.257Z,-0.10
2022-12-12T15:02:21.980Z,-0.20
2022-12-12T15:05:04.967Z,-0.10
2022-12-12T15:07:50.019Z,0.20
2022-12-12T15:10:26.058Z,-0.10
2022-12-12T15:12:54.931Z,-0.10
2022-12-12T15:15:28.210Z,0.30
2022-12-12T15:17:58.976Z,-0.10
2022-12-12T15:20:31.145Z,-0.10
2022-12-12T15:23:09.280Z,0.30
2022-12-12T15:25:46.712Z,0.30
2022-12-12T15:28:21.364Z,0.30
2022-12-12T15:30:53.578Z,0.00
2022-12-12T15:33:24.309Z,-0.10
2022-12-12T15:36:01.416Z,-0.10
2022-12-12T15:38:32.159Z,-0.10
2022-12-12T15:41:13.555Z,0.20
2022-12-12T15:43:54.414Z,0.00
2022-12-12T15:46:23.246Z,-0.20
2022-12-12T15:48:52.539Z,-0.20
2022-12-12T15:51:33.225Z,-0.20
2022-12-12T15:54:02.663Z,-0.10
2022-12-12T15:56:31.777Z,-0.20
2022-12-12T15:59:16.308Z,-0.20
2022-12-12T16:01:45.747Z,-0.20
2022-12-12T16:04:26.175Z,-0.30
2022-12-12T16:06:55.909Z,-0.20
2022-12-12T16:09:28.848Z,-0.10
2022-12-12T16:12:01.129Z,-0.20
2022-12-12T16:14:40.075Z,-0.20
2022-12-12T16:17:13.419Z,-0.20
2022-12-12T16:19:48.201Z,0.40
2022-12-12T16:22:34.963Z,-0.10
2022-12-12T16:25:47.829Z,-0.20
2022-12-12T16:28:25.869Z,-0.20
2022-12-12T16:30:59.692Z,-0.20
2022-12-12T16:33:31.818Z,-0.20
2022-12-12T16:36:05.820Z,0.50
2022-12-12T16:38:36.971Z,0.00
2022-12-12T16:41:07.991Z,0.00
2022-12-12T16:43:36.229Z,-0.20
2022-12-12T16:46:04.674Z,-0.20
2022-12-12T16:48:37.726Z,-0.20
2022-12-12T16:51:09.366Z,-0.20
2022-12-12T16:53:39.267Z,-0.20
2022-12-12T16:56:07.809Z,-0.20
2022-12-12T16:58:36.239Z,-0.20
2022-12-12T17:01:06.020Z,0.00
2022-12-12T17:03:34.879Z,-0.20
2022-12-12T17:06:03.477Z,-0.20
2022-12-12T17:08:31.961Z,-0.20
2022-12-12T17:11:09.916Z,0.00
2022-12-12T17:13:40.467Z,-0.30
2022-12-12T17:16:09.068Z,-0.30
2022-12-12T17:26:19.140Z,-0.30
2022-12-12T17:28:47.678Z,-0.30
2022-12-12T17:31:16.069Z,-0.20
2022-12-12T17:33:50.605Z,-0.30
2022-12-12T17:36:22.612Z,-0.30
2022-12-12T17:38:51.488Z,-0.30
2022-12-12T17:41:21.514Z,0.10
2022-12-12T17:43:55.284Z,-0.60
2022-12-12T17:46:25.179Z,-0.30
2022-12-12T17:48:58.291Z,-0.30
2022-12-12T17:51:27.114Z,-0.20
2022-12-12T17:53:56.562Z,-0.10
2022-12-12T17:56:30.683Z,-0.30
2022-12-12T17:59:00.290Z,-0.30
2022-12-12T18:01:31.624Z,0.20
2022-12-12T18:04:03.717Z,-0.30
2022-12-12T18:06:36.156Z,-0.10
2022-12-12T18:09:05.264Z,-0.30
2022-12-12T18:11:35.853Z,-0.10
2022-12-12T18:14:06.117Z,0.30
2022-12-12T18:16:36.485Z,-0.10
2022-12-12T18:19:06.043Z,-0.30
2022-12-12T18:24:29.599Z,-0.30
2022-12-12T18:27:00.857Z,-0.30
2022-12-12T18:29:29.520Z,-0.50
2022-12-12T18:31:58.332Z,-0.30
2022-12-12T18:34:27.074Z,-0.30
2022-12-12T18:36:57.688Z,-0.40
2022-12-12T18:39:26.596Z,-0.40
2022-12-12T18:41:55.064Z,-0.30
2022-12-12T18:44:26.182Z,-0.40
2022-12-12T18:46:54.604Z,-0.50
2022-12-12T18:49:23.064Z,-0.50
2022-12-12T18:51:51.830Z,-0.30
2022-12-12T18:54:22.500Z,-0.50
2022-12-12T18:56:51.156Z,-0.60
2022-12-12T18:59:19.628Z,-0.50
2022-12-12T19:01:51.668Z,-0.50
2022-12-12T19:04:23.447Z,-0.60
2022-12-12T19:06:53.159Z,-0.60
2022-12-12T19:09:22.713Z,-0.60
2022-12-12T19:11:58.247Z,-0.60
2022-12-12T19:14:45.873Z,-0.50
2022-12-12T19:17:25.722Z,-0.80
2022-12-12T19:19:55.082Z,-0.10
2022-12-12T19:25:12.003Z,-0.80
2022-12-12T19:27:40.488Z,-0.90
2022-12-12T19:30:12.538Z,-0.90
2022-12-12T19:32:42.749Z,-0.90
2022-12-12T19:35:11.206Z,-0.90
2022-12-12T19:37:39.467Z,-0.40
2022-12-12T19:40:09.976Z,-0.80
2022-12-12T19:42:39.044Z,-0.90
2022-12-12T19:45:08.822Z,-1.00
2022-12-12T19:47:37.379Z,-1.00
2022-12-12T19:50:08.438Z,-1.00
2022-12-12T19:52:36.713Z,-1.00
2022-12-12T19:55:05.336Z,-1.10
2022-12-12T19:57:33.636Z,-1.00
2022-12-12T20:00:01.978Z,-1.10
2022-12-12T20:02:37.981Z,-1.10
2022-12-12T20:05:08.687Z,-1.10
2022-12-12T20:07:37.095Z,-1.20
2022-12-12T20:10:08.333Z,-0.90
2022-12-12T20:12:36.588Z,-1.20
2022-12-12T20:15:05.228Z,-0.90
2022-12-12T20:17:35.335Z,-1.20
2022-12-12T20:20:04.790Z,-0.90
2022-12-12T20:22:34.424Z,-1.10
2022-12-12T20:25:03.074Z,-1.00
2022-12-12T20:27:31.345Z,-1.10
2022-12-12T20:29:59.844Z,-0.80
2022-12-12T20:32:30.589Z,-1.20
2022-12-12T20:34:59.080Z,-1.30
2022-12-12T20:37:27.436Z,-1.20
2022-12-12T20:39:59.577Z,-1.30
2022-12-12T20:42:28.211Z,-1.30
2022-12-12T20:44:56.749Z,-0.80
2022-12-12T20:47:25.034Z,-0.30
2022-12-12T20:49:53.637Z,-1.30
2022-12-12T20:52:22.180Z,-1.50
2022-12-12T20:54:50.702Z,-1.30
2022-12-12T20:57:20.909Z,-1.30
2022-12-12T20:59:49.509Z,-1.30
2022-12-12T21:02:18.201Z,-1.10
2022-12-12T21:04:46.842Z,-1.30
2022-12-12T21:07:15.476Z,-0.70
2022-12-12T21:09:44.177Z,-1.30
2022-12-12T21:12:15.594Z,-1.20
2022-12-12T21:14:45.620Z,-1.40
2022-12-12T21:17:15.350Z,-1.40
2022-12-12T21:19:44.872Z,-1.40
2022-12-12T21:22:14.552Z,-1.40
2022-12-12T21:24:44.446Z,-1.40
2022-12-12T21:27:12.787Z,-1.40
2022-12-12T21:29:44.296Z,-1.00
2022-12-12T21:32:13.987Z,-1.40
2022-12-12T21:34:42.627Z,-1.10
2022-12-12T21:37:11.677Z,-1.40
2022-12-12T21:39:42.305Z,-1.40
2022-12-12T21:42:10.693Z,-1.40
2022-12-12T21:44:45.371Z,-1.30
2022-12-12T21:47:15.723Z,-1.40
2022-12-12T21:49:44.268Z,-1.40
2022-12-12T21:52:14.088Z,-1.60
2022-12-12T21:54:42.452Z,-1.10
2022-12-12T21:57:10.856Z,-1.40
2022-12-12T21:59:39.541Z,-1.20
2022-12-12T22:02:08.273Z,-1.40
2022-12-12T22:04:38.174Z,-1.30
2022-12-12T22:07:12.334Z,-1.40
2022-12-12T22:09:42.544Z,-1.60
2022-12-12T22:12:26.396Z,-1.30
2022-12-12T22:14:54.777Z,-1.20
2022-12-12T22:17:23.020Z,-0.60
2022-12-12T22:19:52.746Z,-1.30
2022-12-12T22:22:21.123Z,-1.30
2022-12-12T22:24:49.418Z,-1.10
2022-12-12T22:27:17.839Z,-0.80
2022-12-12T22:29:47.363Z,-1.20
2022-12-12T22:32:16.166Z,-1.30
2022-12-12T22:34:48.415Z,-1.00
2022-12-12T22:37:41.183Z,-1.30
2022-12-12T22:40:11.152Z,-1.30
2022-12-12T22:42:39.442Z,-1.30
2022-12-12T22:45:09.245Z,-1.30
2022-12-12T22:47:37.535Z,-1.40
2022-12-12T22:50:06.227Z,-1.10
2022-12-12T22:52:37.253Z,-1.40
2022-12-12T22:55:06.198Z,-1.40
2022-12-12T22:57:34.667Z,-1.40
2022-12-12T23:00:02.968Z,-1.30
2022-12-12T23:02:31.404Z,-1.20
2022-12-12T23:04:59.731Z,-1.40
2022-12-12T23:07:28.116Z,-1.40
2022-12-12T23:09:59.134Z,-1.40
2022-12-12T23:12:27.417Z,-1.40
2022-12-12T23:14:56.123Z,-0.50
2022-12-12T23:17:24.592Z,-1.40
2022-12-12T23:19:52.880Z,-1.20
2022-12-12T23:22:22.741Z,-1.50
2022-12-12T23:24:51.233Z,-1.50
2022-12-12T23:27:21.246Z,-1.50
2022-12-12T23:29:49.537Z,-1.50
2022-12-12T23:32:17.888Z,-1.50
2022-12-12T23:34:46.521Z,-1.00
2022-12-12T23:37:14.854Z,-1.60
2022-12-12T23:39:43.326Z,-0.60
2022-12-12T23:42:14.760Z,-1.60
2022-12-12T23:44:44.487Z,-1.40
2022-12-12T23:47:12.825Z,-1.60
2022-12-12T23:49:41.177Z,-1.20
2022-12-12T23:52:09.969Z,-1.60
2022-12-12T23:54:38.339Z,-1.70
2022-12-12T23:57:06.740Z,-1.60
2022-12-12T23:59:37.017Z,-1.40
